Strafford, Pennsylvania
Current Conditions -  °F | °C
As of 4:35 PM on Wednesday 26 Nov 2014 (Local Time) from KLOM Reporting Station
Overcast Overcast  
Wind Chill: 34°   Ceiling: 800
Heat Index: 34°   Visibility: 5mi
Dew Point: 34°   Wind: 3mph
Humidity: 100%   Direction: 340°NNW
Pressure: 29.81"   Gusts: NA
Location:  40.0627°N, 75.4015°W
Report Text: KLOM 262135Z AUTO 34003KT 5SM BKN008 OVC014 01/01 A2981 RMK AO1 P0001
Loading
Personal Weather Stations






























Interactive Weather Map New forecast layout! Learn more

10-Day Weather Forecast

Advertisements
Track Severe Weather on mobile